Time;durP1;ratioP1;P1;durP2;ratioP2;P2;SDS_P1;SDS_P2;PMS_P1;PMS_P2;Temp;Humidity;BMP_temperature;BMP_pressure;BME280_temperature;BME280_humidity;BME280_pressure;Samples;Min_cycle;Max_cycle;Signal;HPM_P1;HPM_P2
2021/01/11 00:02:05;;;;;;;4.30;3.72;;;4.40;99.90;;;;;;6151842;23;20217;-77
2021/01/11 00:04:31;;;;;;;7.72;4.15;;;4.40;99.90;;;;;;6127206;23;20166;-76
2021/01/11 00:07:08;;;;;;;4.50;3.28;;;4.40;99.90;;;;;;6151962;23;20154;-77
2021/01/11 00:09:43;;;;;;;3.90;3.47;;;4.40;99.90;;;;;;6125620;23;20226;-77
2021/01/11 00:12:22;;;;;;;4.22;3.83;;;4.40;99.90;;;;;;6151929;23;20145;-77
2021/01/11 00:14:58;;;;;;;3.80;3.40;;;4.40;99.90;;;;;;6152229;23;20167;-77
2021/01/11 00:17:44;;;;;;;4.25;3.85;;;4.50;99.90;;;;;;6151849;23;20131;-77
2021/01/11 00:20:27;;;;;;;3.40;3.10;;;4.40;99.90;;;;;;6151602;23;20185;-77
2021/01/11 00:22:57;;;;;;;4.90;3.90;;;4.50;99.90;;;;;;6128108;23;20445;-77
2021/01/11 00:25:28;;;;;;;3.80;3.50;;;4.50;99.90;;;;;;6153885;23;20289;-77
2021/01/11 00:27:55;;;;;;;7.38;3.60;;;4.50;99.90;;;;;;6153261;23;20170;-77
2021/01/11 00:30:21;;;;;;;4.13;3.70;;;4.40;99.90;;;;;;6153285;23;20584;-77
2021/01/11 00:32:52;;;;;;;5.65;4.25;;;4.40;99.90;;;;;;6153790;23;20458;-77
2021/01/11 00:35:20;;;;;;;5.88;4.22;;;4.40;99.90;;;;;;6153985;23;20166;-77
2021/01/11 00:38:04;;;;;;;3.42;3.17;;;4.30;99.90;;;;;;6126834;23;20225;-77
2021/01/11 00:41:05;;;;;;;6.35;3.80;;;4.20;99.90;;;;;;6153565;23;20587;-77
2021/01/11 00:43:52;;;;;;;6.85;3.78;;;4.20;99.90;;;;;;6153533;23;20475;-77
2021/01/11 00:46:26;;;;;;;4.97;3.60;;;4.10;99.90;;;;;;6128017;23;20158;-77
2021/01/11 00:48:56;;;;;;;4.15;3.25;;;4.00;99.90;;;;;;6153448;23;20131;-76
2021/01/11 00:51:31;;;;;;;3.83;3.25;;;4.00;99.90;;;;;;6103867;23;20201;-77
2021/01/11 00:54:14;;;;;;;3.42;3.13;;;3.90;99.90;;;;;;6131505;23;20186;-77
2021/01/11 00:56:41;;;;;;;4.85;4.00;;;3.70;99.90;;;;;;6127719;23;20639;-77
2021/01/11 00:59:17;;;;;;;6.82;4.20;;;3.60;99.90;;;;;;6151602;23;20134;-76
2021/01/11 01:01:53;;;;;;;5.65;3.75;;;3.60;99.90;;;;;;6102775;23;20154;-76
2021/01/11 01:04:24;;;;;;;5.00;4.05;;;3.50;99.90;;;;;;6103371;23;20201;-77
2021/01/11 01:06:51;;;;;;;3.25;2.70;;;3.40;99.90;;;;;;6153174;23;20146;-77
2021/01/11 01:09:16;;;;;;;3.20;2.50;;;3.40;99.90;;;;;;6152913;23;20174;-77
2021/01/11 01:11:43;;;;;;;5.13;3.10;;;3.40;99.90;;;;;;6151845;23;20576;-77
2021/01/11 01:14:10;;;;;;;4.30;3.30;;;3.40;99.90;;;;;;6153362;23;20594;-77
2021/01/11 01:16:37;;;;;;;3.55;3.25;;;3.40;99.90;;;;;;6153285;23;20790;-77
2021/01/11 01:19:04;;;;;;;4.10;3.17;;;3.40;99.90;;;;;;6152862;23;20787;-76
2021/01/11 01:21:30;;;;;;;3.75;2.75;;;3.40;99.90;;;;;;6151572;23;20162;-77
2021/01/11 01:23:56;;;;;;;3.30;2.20;;;3.40;99.90;;;;;;6127226;23;20189;-77
2021/01/11 01:26:22;;;;;;;2.83;2.50;;;3.40;99.90;;;;;;6153470;23;20533;-77
2021/01/11 01:28:47;;;;;;;4.45;2.17;;;3.50;99.90;;;;;;6152593;23;20154;-77
2021/01/11 01:31:13;;;;;;;2.63;2.10;;;3.50;99.90;;;;;;6152908;23;20233;-76
2021/01/11 01:33:39;;;;;;;3.00;2.23;;;3.60;99.90;;;;;;6126635;23;20566;-77
2021/01/11 01:36:05;;;;;;;3.47;2.60;;;3.70;99.90;;;;;;6153025;23;20518;-77
2021/01/11 01:38:31;;;;;;;3.13;2.60;;;3.70;99.90;;;;;;6152636;23;20855;-75
2021/01/11 01:40:57;;;;;;;2.40;2.20;;;3.80;99.90;;;;;;6152831;23;20155;-75
2021/01/11 01:43:23;;;;;;;3.80;2.30;;;3.80;99.90;;;;;;6127142;23;20481;-75
2021/01/11 01:45:49;;;;;;;1.90;1.70;;;3.90;99.90;;;;;;6153187;23;20169;-75
2021/01/11 01:48:15;;;;;;;2.38;2.15;;;3.90;99.90;;;;;;6126624;23;20146;-75
2021/01/11 01:50:41;;;;;;;4.03;2.35;;;3.80;99.90;;;;;;6152453;23;20252;-75
2021/01/11 01:53:08;;;;;;;2.67;2.13;;;3.80;99.90;;;;;;6153095;23;20161;-75
2021/01/11 01:55:37;;;;;;;3.53;2.60;;;3.90;99.90;;;;;;6143829;23;20158;-75
2021/01/11 01:58:08;;;;;;;2.67;2.00;;;3.90;99.90;;;;;;6152495;23;20581;-75
2021/01/11 02:00:36;;;;;;;2.05;1.70;;;3.90;99.90;;;;;;6152797;23;20138;-75
2021/01/11 02:03:03;;;;;;;1.85;1.60;;;4.00;99.90;;;;;;6152931;23;20221;-75
2021/01/11 02:05:28;;;;;;;2.20;1.80;;;4.10;99.90;;;;;;6152935;23;20190;-75
2021/01/11 02:08:04;;;;;;;2.80;1.50;;;4.10;99.90;;;;;;6151242;23;20526;-75
2021/01/11 02:10:48;;;;;;;2.80;1.75;;;4.20;99.90;;;;;;6153099;23;21063;-75
2021/01/11 02:13:17;;;;;;;1.70;1.55;;;4.20;99.90;;;;;;6153335;23;20185;-75
2021/01/11 02:15:47;;;;;;;2.95;2.10;;;4.20;99.90;;;;;;6153206;23;20200;-75
2021/01/11 02:18:17;;;;;;;2.35;1.83;;;4.20;99.90;;;;;;6151966;23;20126;-75
2021/01/11 02:21:02;;;;;;;3.10;1.92;;;4.20;99.90;;;;;;6175845;23;20146;-75
2021/01/11 02:24:08;;;;;;;4.07;2.10;;;4.20;99.90;;;;;;6152845;23;20138;-75
2021/01/11 02:26:49;;;;;;;5.00;1.70;;;4.20;99.90;;;;;;6152983;23;20347;-75
2021/01/11 02:29:31;;;;;;;2.00;1.58;;;4.20;99.90;;;;;;6152241;23;20139;-75
2021/01/11 02:31:59;;;;;;;2.80;1.70;;;4.20;99.90;;;;;;6150827;23;20193;-75
2021/01/11 02:34:27;;;;;;;1.80;1.67;;;4.30;99.90;;;;;;6152873;23;20166;-75
2021/01/11 02:36:54;;;;;;;3.20;2.38;;;4.30;99.90;;;;;;6152925;23;20593;-75
2021/01/11 02:39:20;;;;;;;3.33;2.35;;;4.30;99.90;;;;;;6151941;23;20620;-75
2021/01/11 02:41:46;;;;;;;2.43;2.20;;;4.20;99.90;;;;;;6152748;23;20181;-75
2021/01/11 02:44:12;;;;;;;2.40;2.20;;;4.10;99.90;;;;;;6150334;23;20616;-77
2021/01/11 02:46:38;;;;;;;3.30;1.60;;;4.00;99.90;;;;;;6152871;23;21033;-77
2021/01/11 02:49:23;;;;;;;2.20;2.00;;;3.90;99.90;;;;;;6152002;23;20526;-76
2021/01/11 02:52:15;;;;;;;2.67;1.75;;;3.80;99.90;;;;;;6152364;23;20642;-77
2021/01/11 02:54:55;;;;;;;2.20;1.42;;;3.70;99.90;;;;;;6137102;23;20182;-76
2021/01/11 02:58:10;;;;;;;2.42;1.98;;;3.70;99.90;;;;;;6125747;23;20213;-76
2021/01/11 03:00:38;;;;;;;3.42;1.65;;;3.70;99.90;;;;;;6136873;23;20542;-76
2021/01/11 03:03:07;;;;;;;2.75;1.60;;;3.70;99.90;;;;;;6126202;23;20257;-76
2021/01/11 03:05:36;;;;;;;2.05;1.48;;;3.70;99.90;;;;;;6152195;23;20601;-77
2021/01/11 03:08:02;;;;;;;2.05;1.35;;;3.80;99.90;;;;;;6125789;23;20158;-76
2021/01/11 03:10:27;;;;;;;1.93;1.40;;;3.90;99.90;;;;;;6152769;23;20182;-76
2021/01/11 03:12:53;;;;;;;2.70;1.43;;;4.00;99.90;;;;;;6152381;23;20577;-76
2021/01/11 03:15:20;;;;;;;2.83;1.73;;;4.10;99.90;;;;;;6152060;23;20565;-76
2021/01/11 03:17:46;;;;;;;2.17;1.70;;;4.10;99.90;;;;;;6151812;23;20146;-76
2021/01/11 03:20:13;;;;;;;2.15;1.70;;;4.10;99.90;;;;;;6151980;23;20601;-76
2021/01/11 03:22:39;;;;;;;3.00;2.00;;;4.10;99.90;;;;;;6126504;23;20493;-77
2021/01/11 03:25:08;;;;;;;2.35;1.85;;;4.10;99.90;;;;;;6152295;23;20180;-76
2021/01/11 03:27:35;;;;;;;2.35;1.70;;;4.00;99.90;;;;;;6151670;23;20158;-76
2021/01/11 03:30:02;;;;;;;4.00;1.75;;;4.00;99.90;;;;;;6151738;23;20178;-77
2021/01/11 03:32:32;;;;;;;1.60;1.30;;;4.10;99.90;;;;;;6152069;23;20154;-76
2021/01/11 03:34:57;;;;;;;2.00;1.45;;;4.10;99.90;;;;;;6126220;23;20171;-76
2021/01/11 03:37:23;;;;;;;2.20;1.52;;;4.10;99.90;;;;;;6125721;23;20150;-76
2021/01/11 03:39:49;;;;;;;2.83;1.53;;;4.10;99.90;;;;;;6152172;23;20225;-76
2021/01/11 03:42:15;;;;;;;2.50;1.83;;;4.00;99.90;;;;;;6151995;23;20537;-76
2021/01/11 03:44:42;;;;;;;2.73;1.90;;;4.00;99.90;;;;;;6151790;23;20554;-76
2021/01/11 03:47:08;;;;;;;3.25;1.70;;;4.00;99.90;;;;;;6152733;23;20554;-76
2021/01/11 03:49:34;;;;;;;2.30;1.50;;;4.00;99.90;;;;;;6151382;23;20538;-76
2021/01/11 03:52:01;;;;;;;2.63;1.80;;;4.10;99.90;;;;;;6150146;23;20210;-76
2021/01/11 03:54:30;;;;;;;2.30;1.70;;;4.10;99.90;;;;;;6129105;23;20205;-76
2021/01/11 03:56:56;;;;;;;2.92;2.10;;;4.10;99.90;;;;;;6152876;23;20147;-76
2021/01/11 03:59:23;;;;;;;3.40;2.42;;;4.10;99.90;;;;;;6152099;23;20218;-76
2021/01/11 04:01:48;;;;;;;2.53;2.10;;;4.00;99.90;;;;;;6152213;23;20150;-76
2021/01/11 04:04:14;;;;;;;2.00;1.70;;;4.00;99.90;;;;;;6152284;23;20170;-76
2021/01/11 04:06:40;;;;;;;2.93;1.70;;;3.90;99.90;;;;;;6152589;23;20150;-76
2021/01/11 04:09:06;;;;;;;2.40;1.60;;;3.80;99.90;;;;;;6151928;23;20519;-76
2021/01/11 04:11:31;;;;;;;3.40;1.90;;;3.70;99.90;;;;;;6152122;23;20581;-76
2021/01/11 04:13:58;;;;;;;2.20;2.00;;;3.70;99.90;;;;;;6151790;23;20193;-76
2021/01/11 04:16:24;;;;;;;2.70;1.52;;;3.70;99.90;;;;;;6152215;23;20150;-76
2021/01/11 04:18:50;;;;;;;2.50;1.42;;;3.80;99.90;;;;;;6151276;23;20150;-76
2021/01/11 04:21:16;;;;;;;2.20;1.73;;;3.80;99.90;;;;;;6151840;23;20146;-76
2021/01/11 04:23:42;;;;;;;2.50;1.40;;;3.80;99.90;;;;;;6150390;23;20174;-76
2021/01/11 04:26:09;;;;;;;2.93;1.70;;;3.80;99.90;;;;;;6152930;23;20541;-76
2021/01/11 04:28:35;;;;;;;2.88;1.63;;;3.90;99.90;;;;;;6151216;23;20891;-76
2021/01/11 04:31:02;;;;;;;5.07;2.67;;;3.90;99.90;;;;;;6125691;23;20174;-76
2021/01/11 04:33:28;;;;;;;3.17;1.30;;;4.00;99.90;;;;;;6150387;23;20593;-76
2021/01/11 04:35:58;;;;;;;3.85;1.95;;;4.00;99.90;;;;;;6150264;23;20487;-76
2021/01/11 04:38:24;;;;;;;6.50;2.10;;;4.10;99.90;;;;;;6125085;23;20151;-76
2021/01/11 04:40:50;;;;;;;2.57;1.67;;;4.10;99.90;;;;;;6151585;23;20177;-76
2021/01/11 04:43:16;;;;;;;5.83;2.90;;;4.20;99.90;;;;;;6151494;23;20150;-76
2021/01/11 04:45:43;;;;;;;6.00;2.50;;;4.30;99.90;;;;;;6149938;23;20234;-76
2021/01/11 04:48:11;;;;;;;8.30;2.53;;;4.30;99.90;;;;;;6149372;23;20159;-76
2021/01/11 04:50:38;;;;;;;2.85;1.63;;;4.40;99.90;;;;;;6151295;23;20290;-76
2021/01/11 04:53:11;;;;;;;1.60;1.15;;;4.40;99.90;;;;;;6151905;23;20217;-76
2021/01/11 04:59:48;;;;;;;2.17;1.67;;;4.40;99.90;;;;;;6149278;23;20398;-83
2021/01/11 05:04:18;;;;;;;;;;;;;;;;;;;;;
2021/01/11 05:07:55;;;;;;;2.88;1.45;;;4.40;99.90;;;;;;5980163;23;20214;-84
2021/01/11 05:11:45;;;;;;;;;;;;;;;;;;;;;
2021/01/11 05:15:53;;;;;;;1.90;1.30;;;4.20;99.90;;;;;;5939766;23;20196;-82
2021/01/11 05:18:56;;;;;;;;;;;;;;;;;;;;;
2021/01/11 05:22:21;;;;;;;2.47;1.60;;;4.00;99.90;;;;;;6151105;23;20158;-83
2021/01/11 05:25:21;;;;;;;2.15;1.45;;;3.90;99.90;;;;;;6125884;23;20232;-84
2021/01/11 05:28:35;;;;;;;;;;;;;;;;;;;;;
2021/01/11 05:31:10;;;;;;;1.83;1.23;;;3.60;99.90;;;;;;6118824;23;20567;-83
2021/01/11 05:34:06;;;;;;;2.50;1.85;;;3.50;99.90;;;;;;6115325;23;20205;-84
2021/01/11 05:36:35;;;;;;;3.45;1.92;;;3.40;99.90;;;;;;6079335;23;20174;-83
2021/01/11 05:39:08;;;;;;;1.75;1.45;;;3.30;99.90;;;;;;6079152;23;20600;-83
2021/01/11 05:41:53;;;;;;;;;;;;;;;;;;;;;
2021/01/11 05:44:19;;;;;;;2.33;1.63;;;3.10;99.90;;;;;;6103207;23;20193;-83
2021/01/11 05:47:10;;;;;;;2.78;1.58;;;3.10;99.90;;;;;;6104877;23;20160;-83
2021/01/11 05:49:49;;;;;;;2.42;2.10;;;3.10;99.90;;;;;;6082823;23;20162;-83
2021/01/11 05:52:29;;;;;;;3.75;1.70;;;3.00;99.90;;;;;;6104631;23;20168;-84
2021/01/11 05:55:39;;;;;;;2.00;1.35;;;2.90;99.90;;;;;;6068148;23;20624;-85
2021/01/11 05:58:28;;;;;;;;;;;;;;;;;;;;;
2021/01/11 06:02:09;;;;;;;2.95;2.22;;;2.90;99.90;;;;;;6015611;23;20158;-84
2021/01/11 06:05:48;;;;;;;2.10;1.70;;;2.90;99.90;;;;;;6005368;23;20256;-83
2021/01/11 06:09:20;;;;;;;2.90;1.83;;;2.80;99.90;;;;;;5972624;23;20158;-83
2021/01/11 06:16:09;;;;;;;2.80;1.60;;;2.90;99.90;;;;;;5946939;23;20200;-83
2021/01/11 06:18:41;;;;;;;3.45;1.75;;;2.80;99.90;;;;;;5978569;23;20158;-83
2021/01/11 06:21:29;;;;;;;3.55;2.15;;;2.80;99.90;;;;;;5980281;23;20168;-83
2021/01/11 06:24:15;;;;;;;3.70;3.30;;;2.80;99.90;;;;;;5978443;23;20698;-82
2021/01/11 06:26:49;;;;;;;2.88;2.65;;;2.80;99.90;;;;;;5979127;23;20173;-82
2021/01/11 06:29:35;;;;;;;2.40;2.08;;;2.90;99.90;;;;;;5983451;23;20147;-82
2021/01/11 06:32:21;;;;;;;3.83;3.35;;;2.90;99.90;;;;;;5982558;23;20238;-82
2021/01/11 06:34:50;;;;;;;6.60;3.33;;;2.90;99.90;;;;;;6002562;23;20176;-82
2021/01/11 06:37:18;;;;;;;2.50;2.10;;;2.80;99.90;;;;;;5978107;23;20628;-82
2021/01/11 06:39:58;;;;;;;2.85;2.45;;;2.80;99.90;;;;;;6002060;23;20150;-81
2021/01/11 06:42:38;;;;;;;3.88;2.58;;;2.90;99.90;;;;;;6000285;23;20234;-83
2021/01/11 06:45:19;;;;;;;3.03;2.28;;;2.90;99.90;;;;;;5978895;23;20180;-84
2021/01/11 06:48:08;;;;;;;3.63;1.80;;;2.90;99.90;;;;;;5999531;23;20528;-83
2021/01/11 06:50:35;;;;;;;1.70;1.60;;;3.00;99.90;;;;;;6001881;23;20173;-84
2021/01/11 06:53:15;;;;;;;2.53;2.08;;;3.00;99.90;;;;;;6003394;23;20189;-82
2021/01/11 06:59:23;;;;;;;;;;;;;;;;;;;;;
2021/01/11 07:01:49;;;;;;;2.00;1.75;;;3.00;99.90;;;;;;5978804;23;20158;-83
2021/01/11 07:04:44;;;;;;;3.10;2.50;;;3.00;99.90;;;;;;6002624;23;20166;-82
2021/01/11 07:07:29;;;;;;;2.35;2.10;;;3.00;99.90;;;;;;5982986;23;20166;-82
2021/01/11 07:10:09;;;;;;;5.43;2.00;;;3.00;99.90;;;;;;6002435;23;20224;-83
2021/01/11 07:12:35;;;;;;;3.63;2.30;;;3.00;99.90;;;;;;6003107;23;20160;-82
2021/01/11 07:15:16;;;;;;;5.13;2.35;;;3.00;99.90;;;;;;6003932;23;20166;-82
2021/01/11 07:17:48;;;;;;;3.20;2.60;;;3.00;99.90;;;;;;6002484;23;20134;-82
2021/01/11 07:20:39;;;;;;;3.67;2.15;;;3.00;99.90;;;;;;5978049;23;20153;-83
2021/01/11 07:23:12;;;;;;;2.35;2.15;;;3.00;99.90;;;;;;6038098;23;20536;-83
2021/01/11 07:25:52;;;;;;;2.50;2.30;;;3.00;99.90;;;;;;5981316;23;20177;-83
2021/01/11 07:28:20;;;;;;;3.30;2.50;;;3.10;99.90;;;;;;6002926;23;20150;-83
2021/01/11 07:30:58;;;;;;;8.27;2.65;;;3.10;99.90;;;;;;6002193;23;20166;-83
2021/01/11 07:33:27;;;;;;;3.35;2.00;;;3.10;99.90;;;;;;6040377;23;20148;-83
2021/01/11 07:36:36;;;;;;;3.30;2.75;;;3.10;99.90;;;;;;6012575;23;20174;-84
2021/01/11 07:39:22;;;;;;;5.13;2.47;;;3.20;99.90;;;;;;6006831;23;20157;-82
2021/01/11 07:41:58;;;;;;;3.72;3.00;;;3.20;99.90;;;;;;6003845;23;20154;-82
2021/01/11 07:44:31;;;;;;;3.92;2.97;;;3.20;99.90;;;;;;6011532;23;20210;-81
2021/01/11 07:47:13;;;;;;;2.65;2.40;;;3.20;99.90;;;;;;5982865;23;20188;-82
2021/01/11 07:49:43;;;;;;;2.50;2.30;;;3.30;99.90;;;;;;6009265;23;20138;-81
2021/01/11 07:52:16;;;;;;;2.92;2.67;;;3.30;99.90;;;;;;5979083;23;20191;-82
2021/01/11 07:54:55;;;;;;;3.78;2.85;;;3.40;99.90;;;;;;6052592;23;20493;-81
2021/01/11 07:57:28;;;;;;;4.85;2.88;;;3.50;99.90;;;;;;6128216;23;20214;-81
2021/01/11 08:00:10;;;;;;;4.10;2.88;;;3.50;99.90;;;;;;6151251;23;20230;-83
2021/01/11 08:02:46;;;;;;;3.70;3.15;;;3.50;99.90;;;;;;6102131;23;20143;-83
2021/01/11 08:05:25;;;;;;;3.53;2.50;;;3.50;99.90;;;;;;6101541;23;20229;-85
2021/01/11 08:08:07;;;;;;;4.20;2.95;;;3.60;99.90;;;;;;6126180;23;20154;-82
2021/01/11 08:10:42;;;;;;;3.08;2.75;;;3.70;99.90;;;;;;6104790;23;20679;-84
2021/01/11 08:13:14;;;;;;;3.83;2.83;;;3.70;99.90;;;;;;6103280;23;20180;-82
2021/01/11 08:16:12;;;;;;;5.18;3.30;;;3.70;99.90;;;;;;6106643;23;20578;-82
2021/01/11 08:18:39;;;;;;;3.75;3.25;;;3.70;99.90;;;;;;6155544;23;20246;-82
2021/01/11 08:21:10;;;;;;;6.07;2.72;;;3.70;99.90;;;;;;6112705;23;20174;-82
2021/01/11 08:23:39;;;;;;;4.95;3.72;;;3.80;99.90;;;;;;6170160;23;20150;-83
2021/01/11 08:26:09;;;;;;;4.43;3.25;;;3.80;99.90;;;;;;6098664;23;20193;-83
2021/01/11 08:28:41;;;;;;;3.20;2.63;;;3.80;99.90;;;;;;6152951;23;20149;-84
2021/01/11 08:31:08;;;;;;;4.88;3.10;;;3.90;99.90;;;;;;6105402;23;20189;-82
2021/01/11 08:33:36;;;;;;;5.97;4.00;;;4.00;99.90;;;;;;6153345;23;20143;-82
2021/01/11 08:36:23;;;;;;;7.57;3.83;;;4.10;99.90;;;;;;6129441;23;20557;-82
2021/01/11 08:39:08;;;;;;;4.72;4.05;;;4.10;99.90;;;;;;6126211;23;20154;-83
2021/01/11 08:41:37;;;;;;;6.13;3.22;;;4.20;99.90;;;;;;6126442;23;20222;-81
2021/01/11 08:44:04;;;;;;;6.00;3.45;;;4.30;99.90;;;;;;6127640;23;20210;-81
2021/01/11 08:46:52;;;;;;;3.95;3.65;;;4.30;99.90;;;;;;6152894;23;20190;-82
2021/01/11 08:49:19;;;;;;;4.60;3.33;;;4.30;99.90;;;;;;6106919;23;20147;-82
2021/01/11 08:51:48;;;;;;;4.38;3.97;;;4.40;99.90;;;;;;6105939;23;20202;-81
2021/01/11 08:54:25;;;;;;;3.53;3.22;;;4.50;99.90;;;;;;6154477;23;20157;-81
2021/01/11 08:57:17;;;;;;;2.92;2.38;;;4.50;99.90;;;;;;6084187;23;20592;-81
2021/01/11 08:59:51;;;;;;;5.80;3.65;;;4.60;99.90;;;;;;6111268;23;20161;-83
2021/01/11 09:02:28;;;;;;;4.10;3.58;;;4.60;99.90;;;;;;6106468;23;20151;-81
2021/01/11 09:04:55;;;;;;;7.85;3.60;;;4.70;99.90;;;;;;6105437;23;20176;-83
2021/01/11 09:07:34;;;;;;;4.90;4.15;;;4.70;99.90;;;;;;6153847;23;20145;-81
2021/01/11 09:10:34;;;;;;;;;;;;;;;;;;;;;
2021/01/11 09:13:27;;;;;;;6.82;4.28;;;4.70;99.90;;;;;;6104420;23;20181;-83
2021/01/11 09:15:56;;;;;;;5.85;3.55;;;4.50;99.90;;;;;;6128566;23;20179;-82
2021/01/11 09:18:24;;;;;;;7.05;4.53;;;4.40;99.90;;;;;;6127794;23;20190;-81
2021/01/11 09:20:52;;;;;;;5.63;4.55;;;4.30;99.90;;;;;;6079442;23;20158;-82
2021/01/11 09:23:20;;;;;;;4.65;3.72;;;4.20;99.90;;;;;;6127815;23;20158;-82
2021/01/11 09:25:57;;;;;;;7.90;4.30;;;4.20;99.90;;;;;;6103465;23;20520;-82
2021/01/11 09:28:26;;;;;;;5.80;4.05;;;4.10;99.90;;;;;;6127013;23;20131;-82
2021/01/11 09:30:58;;;;;;;6.35;4.47;;;4.10;99.90;;;;;;6103030;23;20182;-83
2021/01/11 09:33:27;;;;;;;7.32;4.50;;;4.00;99.90;;;;;;6152308;23;20233;-82
2021/01/11 09:35:55;;;;;;;4.85;3.83;;;4.00;99.90;;;;;;6131701;23;20162;-82
2021/01/11 09:38:21;;;;;;;4.95;4.10;;;3.90;99.90;;;;;;6081206;23;20178;-81
2021/01/11 09:40:50;;;;;;;5.55;3.50;;;3.90;99.90;;;;;;6127656;23;20150;-81
2021/01/11 09:43:17;;;;;;;5.25;3.63;;;4.00;99.90;;;;;;6103765;23;20213;-81
2021/01/11 09:45:45;;;;;;;5.55;3.70;;;4.00;99.90;;;;;;6079290;23;20601;-82
2021/01/11 09:48:11;;;;;;;5.82;4.15;;;4.00;99.90;;;;;;6127485;23;20165;-81
2021/01/11 09:50:39;;;;;;;5.77;3.67;;;4.00;99.90;;;;;;6127179;23;20182;-82
2021/01/11 09:53:08;;;;;;;3.65;3.13;;;4.00;99.90;;;;;;6103526;23;20681;-82
2021/01/11 09:55:37;;;;;;;6.90;4.22;;;4.00;99.90;;;;;;6085092;23;20260;-82
2021/01/11 09:58:04;;;;;;;5.28;4.20;;;4.00;99.90;;;;;;6025948;23;20161;-82
2021/01/11 10:00:33;;;;;;;4.95;3.47;;;4.10;99.90;;;;;;6026719;23;20158;-84
2021/01/11 10:03:15;;;;;;;4.72;3.83;;;4.10;99.90;;;;;;5982230;23;20595;-83
2021/01/11 10:05:42;;;;;;;6.15;3.53;;;4.10;99.90;;;;;;6002832;23;20184;-83
2021/01/11 10:08:13;;;;;;;6.88;4.22;;;4.10;99.90;;;;;;6002863;23;20154;-83
2021/01/11 10:10:39;;;;;;;4.30;3.45;;;4.20;99.90;;;;;;6004292;23;20266;-83
2021/01/11 10:13:08;;;;;;;3.60;3.07;;;4.20;99.90;;;;;;5982562;23;20189;-83
2021/01/11 10:15:36;;;;;;;5.90;4.03;;;4.30;99.90;;;;;;5980412;23;20942;-83
2021/01/11 10:18:02;;;;;;;4.95;3.92;;;4.30;99.90;;;;;;6026110;23;20157;-83
2021/01/11 10:20:32;;;;;;;3.67;3.10;;;4.40;99.90;;;;;;5979753;23;20185;-81
2021/01/11 10:23:01;;;;;;;2.80;2.33;;;4.40;99.90;;;;;;5979676;23;20511;-84
2021/01/11 10:25:37;;;;;;;4.57;3.60;;;4.40;99.90;;;;;;6003332;23;20170;-83
2021/01/11 10:28:13;;;;;;;6.90;3.35;;;4.50;99.90;;;;;;6027247;23;20158;-82
2021/01/11 10:30:39;;;;;;;5.03;3.33;;;4.60;99.90;;;;;;6025985;23;20237;-82
2021/01/11 10:33:05;;;;;;;4.28;3.17;;;4.60;99.90;;;;;;6002835;23;20180;-82
2021/01/11 10:35:33;;;;;;;4.43;3.37;;;4.70;99.90;;;;;;6004435;23;20506;-82
2021/01/11 10:38:01;;;;;;;4.50;3.28;;;4.80;99.90;;;;;;6026512;23;20147;-82
2021/01/11 10:40:27;;;;;;;7.50;5.15;;;4.90;99.90;;;;;;6003103;23;20154;-81
2021/01/11 10:42:54;;;;;;;5.78;4.60;;;4.90;99.90;;;;;;6003309;23;20154;-82
2021/01/11 10:45:19;;;;;;;5.47;4.20;;;4.90;99.90;;;;;;6027079;23;20587;-83
2021/01/11 10:47:46;;;;;;;6.47;4.63;;;4.80;99.90;;;;;;6026743;23;20574;-81
2021/01/11 10:50:12;;;;;;;6.68;3.97;;;4.70;99.90;;;;;;5981194;23;20526;-82
2021/01/11 10:52:40;;;;;;;6.45;4.40;;;4.70;99.90;;;;;;6005710;23;20481;-82
2021/01/11 10:55:07;;;;;;;6.68;4.30;;;4.60;99.90;;;;;;6027032;23;20189;-77
2021/01/11 10:57:36;;;;;;;5.10;3.97;;;4.60;99.90;;;;;;6025614;23;20154;-78
2021/01/11 11:00:13;;;;;;;4.85;3.78;;;4.50;99.90;;;;;;6002816;23;20150;-79
2021/01/11 11:02:39;;;;;;;7.40;4.85;;;4.50;99.90;;;;;;6003954;23;20134;-79
2021/01/11 11:05:06;;;;;;;5.05;3.78;;;4.50;99.90;;;;;;6004331;23;20158;-79
2021/01/11 11:07:51;;;;;;;4.38;3.97;;;4.50;99.90;;;;;;6028818;23;20481;-78
2021/01/11 11:10:22;;;;;;;4.65;3.97;;;4.50;99.90;;;;;;6003155;23;20167;-78
2021/01/11 11:12:49;;;;;;;7.47;4.35;;;4.50;99.90;;;;;;6002586;23;20130;-78
2021/01/11 11:15:15;;;;;;;5.25;4.18;;;4.50;99.90;;;;;;5979961;23;20178;-77
2021/01/11 11:17:41;;;;;;;5.22;3.80;;;4.50;99.90;;;;;;6002383;23;20162;-78
2021/01/11 11:20:07;;;;;;;6.00;5.25;;;4.50;99.90;;;;;;5979028;23;20154;-78
2021/01/11 11:22:33;;;;;;;4.35;3.95;;;4.50;99.90;;;;;;5979215;23;20507;-78
2021/01/11 11:25:05;;;;;;;6.13;4.33;;;4.50;99.90;;;;;;6025978;23;20253;-79
2021/01/11 11:27:35;;;;;;;5.45;3.97;;;4.50;99.90;;;;;;6027842;23;20146;-79
2021/01/11 11:30:01;;;;;;;5.18;4.15;;;4.50;99.90;;;;;;6004503;23;20158;-79
2021/01/11 11:32:30;;;;;;;10.48;4.72;;;4.50;99.90;;;;;;5979043;23;20162;-79
2021/01/11 11:34:57;;;;;;;6.85;4.40;;;4.50;99.90;;;;;;6026100;23;20682;-78
2021/01/11 11:37:24;;;;;;;8.75;4.40;;;4.50;99.90;;;;;;5978324;23;20158;-79
2021/01/11 11:39:50;;;;;;;7.30;5.60;;;4.50;99.90;;;;;;6025673;23;20158;-78
2021/01/11 11:42:16;;;;;;;8.00;4.87;;;4.60;99.90;;;;;;6001874;23;20480;-79
2021/01/11 11:45:14;;;;;;;3.45;2.95;;;4.60;99.90;;;;;;5979756;23;20583;-79
2021/01/11 11:47:41;;;;;;;6.03;4.30;;;4.70;99.90;;;;;;6002342;23;20318;-79
2021/01/11 11:50:13;;;;;;;4.60;3.78;;;4.70;99.90;;;;;;5979161;23;20150;-77
2021/01/11 11:52:40;;;;;;;6.38;4.07;;;4.80;99.90;;;;;;6002517;23;20477;-78
2021/01/11 11:55:12;;;;;;;5.18;4.18;;;4.80;99.90;;;;;;5978753;23;20600;-79
2021/01/11 11:57:42;;;;;;;6.43;4.05;;;4.80;99.90;;;;;;5978715;23;20157;-79
2021/01/11 12:00:10;;;;;;;8.02;5.45;;;4.80;99.90;;;;;;6002276;23;20768;-78
2021/01/11 12:02:51;;;;;;;4.32;3.25;;;4.80;99.90;;;;;;5979870;23;20487;-78
2021/01/11 12:05:52;;;;;;;6.55;4.47;;;4.90;99.90;;;;;;6007105;23;20166;-79
2021/01/11 12:09:09;;;;;;;8.23;3.90;;;4.90;99.90;;;;;;5994787;23;20154;-78
2021/01/11 12:11:42;;;;;;;5.50;3.60;;;4.90;99.90;;;;;;6001158;23;20181;-78
2021/01/11 12:14:08;;;;;;;7.38;4.00;;;4.90;99.90;;;;;;6002235;23;20193;-78
2021/01/11 12:16:37;;;;;;;4.43;3.25;;;5.00;99.90;;;;;;6001682;23;20176;-77
2021/01/11 12:19:04;;;;;;;4.80;3.67;;;5.10;99.90;;;;;;6027720;23;20173;-77
2021/01/11 12:21:35;;;;;;;4.68;4.20;;;5.10;99.90;;;;;;6030960;23;20883;-78
2021/01/11 12:24:03;;;;;;;4.65;3.72;;;5.20;99.90;;;;;;6005065;23;20157;-79
2021/01/11 12:26:44;;;;;;;6.90;4.38;;;5.20;99.90;;;;;;6003478;23;20269;-78
2021/01/11 12:29:11;;;;;;;7.65;4.90;;;5.30;99.90;;;;;;6004653;23;20152;-77
2021/01/11 12:31:44;;;;;;;5.35;3.97;;;5.30;99.90;;;;;;6002587;23;20182;-78
2021/01/11 12:34:14;;;;;;;5.47;4.25;;;5.30;99.90;;;;;;5957429;23;20162;-79
2021/01/11 12:36:44;;;;;;;4.05;3.63;;;5.30;99.90;;;;;;5979297;23;20515;-78
2021/01/11 12:39:11;;;;;;;6.05;4.20;;;5.40;99.90;;;;;;5978803;23;20162;-79
2021/01/11 12:41:39;;;;;;;5.10;3.80;;;5.40;99.90;;;;;;6003280;23;20568;-79
2021/01/11 12:44:09;;;;;;;7.78;3.90;;;5.40;99.90;;;;;;6008615;23;20206;-77
2021/01/11 12:46:35;;;;;;;4.32;3.55;;;5.50;99.90;;;;;;5982158;23;20209;-77
2021/01/11 12:49:04;;;;;;;6.18;5.35;;;5.50;99.90;;;;;;6009484;23;20585;-78
2021/01/11 12:51:31;;;;;;;4.22;3.65;;;5.50;99.90;;;;;;6003249;23;20166;-77
2021/01/11 12:54:07;;;;;;;5.15;3.17;;;5.60;99.90;;;;;;6003016;23;20181;-78
2021/01/11 12:56:33;;;;;;;9.60;4.55;;;5.60;99.90;;;;;;6141907;23;20190;-79
2021/01/11 12:59:00;;;;;;;4.85;3.95;;;5.60;99.90;;;;;;6102715;23;20158;-79
2021/01/11 13:01:32;;;;;;;6.22;4.75;;;5.60;99.90;;;;;;6126639;23;20165;-77
2021/01/11 13:04:01;;;;;;;6.60;4.30;;;5.60;99.90;;;;;;6102951;23;20597;-78
2021/01/11 13:06:32;;;;;;;5.38;3.42;;;5.60;99.90;;;;;;6127135;23;20249;-78
2021/01/11 13:08:59;;;;;;;3.85;3.17;;;5.60;99.90;;;;;;6102453;23;20158;-77
2021/01/11 13:11:29;;;;;;;5.78;4.35;;;5.70;99.90;;;;;;6151765;23;20268;-77
2021/01/11 13:13:57;;;;;;;8.73;5.15;;;5.60;99.90;;;;;;6127588;23;20225;-77
2021/01/11 13:16:31;;;;;;;6.05;3.63;;;5.60;99.90;;;;;;6152308;23;20170;-79
2021/01/11 13:19:01;;;;;;;5.82;4.13;;;5.70;99.90;;;;;;6153845;23;20225;-78
2021/01/11 13:21:28;;;;;;;4.60;3.80;;;5.70;99.90;;;;;;6107077;23;20501;-78
2021/01/11 13:23:55;;;;;;;4.22;3.60;;;5.80;99.90;;;;;;6102392;23;20213;-78
2021/01/11 13:26:21;;;;;;;5.70;3.55;;;5.80;99.90;;;;;;6151259;23;20174;-78
2021/01/11 13:28:48;;;;;;;5.00;3.47;;;5.90;99.90;;;;;;6102259;23;20154;-78
2021/01/11 13:31:14;;;;;;;4.57;3.10;;;5.90;99.90;;;;;;6126488;23;20256;-78
2021/01/11 13:33:40;;;;;;;3.60;3.17;;;5.90;99.90;;;;;;6153492;23;20240;-78
2021/01/11 13:36:06;;;;;;;4.03;3.63;;;6.00;99.90;;;;;;6102217;23;20562;-78
2021/01/11 13:38:32;;;;;;;5.72;5.20;;;6.00;99.90;;;;;;6125605;23;20150;-79
2021/01/11 13:40:58;;;;;;;6.30;4.90;;;6.00;99.90;;;;;;6152067;23;20147;-78
2021/01/11 13:43:24;;;;;;;8.40;4.63;;;6.00;99.90;;;;;;6126425;23;21071;-79
2021/01/11 13:45:53;;;;;;;4.60;3.43;;;6.00;99.90;;;;;;6102598;23;21124;-79
2021/01/11 13:48:21;;;;;;;9.25;4.60;;;5.90;99.90;;;;;;6152522;23;20542;-79
2021/01/11 13:50:47;;;;;;;4.70;3.47;;;5.90;99.90;;;;;;6152795;23;20260;-79
2021/01/11 13:53:13;;;;;;;4.05;3.65;;;5.90;99.90;;;;;;6152596;23;20660;-78
2021/01/11 13:55:41;;;;;;;3.80;3.20;;;5.90;99.90;;;;;;6056458;23;20447;-78